Time;durP1;ratioP1;P1;durP2;ratioP2;P2;SDS_P1;SDS_P2;PMS_P1;PMS_P2;Temp;Humidity;BMP_temperature;BMP_pressure;BME280_temperature;BME280_humidity;BME280_pressure;Samples;Min_cycle;Max_cycle;Signal;HPM_P1;HPM_P2
2023/02/17 00:01:13;;;;;;;73.25;22.48;;;;;;;8.03;100.00;101932.03;5010817;28;20026;-45
2023/02/17 00:03:39;;;;;;;81.25;22.90;;;;;;;8.00;100.00;101931.44;5010015;28;20030;-45
2023/02/17 00:06:06;;;;;;;72.38;21.27;;;;;;;7.99;100.00;101921.72;5009932;28;20033;-45
2023/02/17 00:08:31;;;;;;;71.80;18.98;;;;;;;7.90;100.00;101926.06;5010623;28;20026;-45
2023/02/17 00:10:57;;;;;;;91.28;20.00;;;;;;;7.85;100.00;101922.97;5024277;28;20044;-44
2023/02/17 00:13:23;;;;;;;77.95;21.83;;;;;;;7.84;100.00;101937.31;5029717;28;20120;-45
2023/02/17 00:15:48;;;;;;;83.00;21.45;;;;;;;7.82;100.00;101929.44;5029937;28;20468;-45
2023/02/17 00:18:13;;;;;;;85.25;21.33;;;;;;;7.79;100.00;101936.88;5021928;28;20025;-45
2023/02/17 00:20:39;;;;;;;95.80;20.98;;;;;;;7.81;100.00;101926.88;5017915;28;20382;-45
2023/02/17 00:23:04;;;;;;;88.10;22.10;;;;;;;7.79;100.00;101918.13;5010336;28;20417;-45
2023/02/17 00:25:29;;;;;;;90.20;21.40;;;;;;;7.81;100.00;101929.56;5011177;28;20436;-44
2023/02/17 00:27:55;;;;;;;99.18;23.63;;;;;;;7.79;100.00;101944.94;5028660;28;20427;-44
2023/02/17 00:30:20;;;;;;;69.03;19.85;;;;;;;7.76;100.00;101935.31;5027936;28;20408;-45
2023/02/17 00:32:45;;;;;;;82.43;19.52;;;;;;;7.75;100.00;101925.59;5021244;28;20432;-44
2023/02/17 00:35:11;;;;;;;93.57;20.67;;;;;;;7.74;100.00;101923.94;5019373;28;20026;-45
2023/02/17 00:37:36;;;;;;;77.03;18.42;;;;;;;7.74;100.00;101923.94;5028603;28;20030;-45
2023/02/17 00:40:01;;;;;;;82.65;17.77;;;;;;;7.72;100.00;101919.69;5022787;28;20018;-45
2023/02/17 00:42:27;;;;;;;89.82;19.63;;;;;;;7.65;100.00;101912.16;5016671;28;20033;-45
2023/02/17 00:44:52;;;;;;;73.63;15.95;;;;;;;7.66;100.00;101908.53;5023872;28;20036;-43
2023/02/17 00:47:17;;;;;;;80.97;16.95;;;;;;;7.59;100.00;101927.97;5011671;28;20022;-44
2023/02/17 00:49:43;;;;;;;76.82;16.75;;;;;;;7.58;100.00;101931.59;5009926;28;20058;-44
2023/02/17 00:52:08;;;;;;;83.22;17.38;;;;;;;7.55;100.00;101913.97;5009900;28;20053;-43
2023/02/17 00:54:33;;;;;;;78.95;18.48;;;;;;;7.55;100.00;101927.38;5019203;28;20033;-44
2023/02/17 00:56:59;;;;;;;83.18;18.25;;;;;;;7.55;100.00;101932.72;5022932;28;20050;-46
2023/02/17 00:59:24;;;;;;;83.82;20.05;;;;;;;7.57;100.00;101938.78;5014122;28;20028;-44
2023/02/17 01:01:49;;;;;;;89.97;19.42;;;;;;;7.58;100.00;101932.47;5022668;28;20021;-45
2023/02/17 01:04:15;;;;;;;82.97;19.58;;;;;;;7.60;100.00;101922.44;5031370;28;20428;-45
2023/02/17 01:06:40;;;;;;;86.95;19.48;;;;;;;7.59;100.00;101936.84;5024551;28;20124;-45
2023/02/17 01:09:07;;;;;;;92.15;21.23;;;;;;;7.62;100.00;101928.53;5022696;28;20032;-45
2023/02/17 01:11:33;;;;;;;87.68;21.60;;;;;;;7.64;100.00;101942.63;5024843;28;20510;-44
2023/02/17 01:14:00;;;;;;;97.60;21.38;;;;;;;7.66;100.00;101934.44;5023869;28;20038;-45
2023/02/17 01:16:34;;;;;;;83.18;20.98;;;;;;;7.69;100.00;101934.19;5027207;28;20388;-45
2023/02/17 01:19:04;;;;;;;87.00;22.75;;;;;;;7.68;100.00;101919.94;5021320;28;20033;-45
2023/02/17 01:21:31;;;;;;;78.82;22.20;;;;;;;7.68;100.00;101911.91;5032190;28;20029;-46
2023/02/17 01:23:58;;;;;;;90.85;23.35;;;;;;;7.67;100.00;101915.56;5018370;28;20030;-46
2023/02/17 01:26:25;;;;;;;82.82;21.77;;;;;;;7.66;100.00;101913.88;5017426;28;20033;-46
2023/02/17 01:28:51;;;;;;;85.97;24.58;;;;;;;7.68;100.00;101917.25;5032731;28;20147;-45
2023/02/17 01:31:18;;;;;;;86.47;23.55;;;;;;;7.68;100.00;101914.56;5012770;28;20064;-45
2023/02/17 01:33:43;;;;;;;77.88;21.98;;;;;;;7.69;100.00;101913.59;5020490;28;20118;-45
2023/02/17 01:36:14;;;;;;;89.88;23.17;;;;;;;7.68;100.00;101906.53;5028320;28;20068;-44
2023/02/17 01:38:40;;;;;;;79.10;23.95;;;;;;;7.70;100.00;101901.91;5022855;28;20041;-44
2023/02/17 01:41:06;;;;;;;69.65;21.38;;;;;;;7.66;100.00;101900.50;5021137;28;20044;-45
2023/02/17 01:43:32;;;;;;;75.72;22.20;;;;;;;7.65;100.00;101901.44;5022584;28;20053;-45
2023/02/17 01:45:59;;;;;;;60.58;20.23;;;;;;;7.61;100.00;101901.84;5029162;28;20079;-45
2023/02/17 01:48:31;;;;;;;61.55;18.58;;;;;;;7.61;100.00;101896.50;5032135;28;20026;-45
2023/02/17 01:51:06;;;;;;;58.70;17.42;;;;;;;7.64;100.00;101891.72;5014387;28;20084;-44
2023/02/17 01:53:36;;;;;;;53.22;17.92;;;;;;;7.66;100.00;101894.25;5022775;28;20447;-45
2023/02/17 01:56:02;;;;;;;57.55;18.70;;;;;;;7.65;100.00;101898.78;5013924;28;20026;-45
2023/02/17 01:58:29;;;;;;;62.33;17.83;;;;;;;7.66;100.00;101892.44;5011052;28;20061;-45
2023/02/17 02:00:55;;;;;;;58.42;16.67;;;;;;;7.68;100.00;101881.56;5012717;28;20489;-43
2023/02/17 02:03:21;;;;;;;64.97;18.73;;;;;;;7.69;100.00;101865.38;5020814;28;20044;-43
2023/02/17 02:05:46;;;;;;;57.78;17.90;;;;;;;7.64;100.00;101872.97;5028366;28;20403;-44
2023/02/17 02:08:12;;;;;;;65.63;19.70;;;;;;;7.65;100.00;101874.66;5027119;28;20040;-44
2023/02/17 02:10:38;;;;;;;64.72;19.13;;;;;;;7.64;100.00;101875.66;5022030;28;20060;-45
2023/02/17 02:13:04;;;;;;;63.85;18.73;;;;;;;7.62;100.00;101874.94;5013620;28;20052;-47
2023/02/17 02:15:50;;;;;;;65.28;19.17;;;;;;;7.58;100.00;101886.94;5032299;28;20025;-48
2023/02/17 02:18:31;;;;;;;61.13;19.13;;;;;;;7.56;100.00;101874.66;5020746;28;20054;-46
2023/02/17 02:21:17;;;;;;;60.88;18.83;;;;;;;7.51;100.00;101861.66;5023765;28;20030;-44
2023/02/17 02:23:55;;;;;;;64.90;18.85;;;;;;;7.52;100.00;101849.97;5028124;28;20515;-46
2023/02/17 02:26:56;;;;;;;63.90;18.58;;;;;;;7.53;100.00;101856.16;5018398;28;20021;-43
2023/02/17 02:29:52;;;;;;;67.45;20.38;;;;;;;7.51;100.00;101860.81;4985113;28;20127;-43
2023/02/17 02:32:35;;;;;;;60.60;17.08;;;;;;;7.48;100.00;101861.94;5012350;28;20037;-44
2023/02/17 02:35:13;;;;;;;56.40;15.52;;;;;;;7.51;100.00;101860.81;5031370;28;20749;-43
2023/02/17 02:37:43;;;;;;;63.58;19.02;;;;;;;7.49;100.00;101858.28;5029605;28;20441;-43
2023/02/17 02:40:11;;;;;;;65.15;19.40;;;;;;;7.49;100.00;101852.91;5022549;28;20045;-46
2023/02/17 02:42:38;;;;;;;69.68;18.58;;;;;;;7.50;100.00;101849.25;5026940;28;20030;-43
2023/02/17 02:45:08;;;;;;;77.60;19.83;;;;;;;7.54;100.00;101839.97;5027038;28;20119;-45
2023/02/17 02:47:45;;;;;;;71.72;21.08;;;;;;;7.55;100.00;101846.16;5025130;28;20041;-45
2023/02/17 02:50:17;;;;;;;69.15;20.52;;;;;;;7.59;100.00;101832.34;5029279;28;20168;-45
2023/02/17 02:53:04;;;;;;;61.70;18.67;;;;;;;7.58;100.00;101833.34;5028475;28;20021;-44
2023/02/17 02:55:39;;;;;;;66.40;18.55;;;;;;;7.57;100.00;101828.97;5029557;28;20029;-46
2023/02/17 02:58:11;;;;;;;79.65;21.02;;;;;;;7.59;100.00;101813.59;5029378;28;20030;-46
2023/02/17 03:00:54;;;;;;;74.13;22.42;;;;;;;7.57;100.00;101796.81;5033561;28;20026;-45
2023/02/17 03:03:38;;;;;;;75.00;20.35;;;;;;;7.61;100.00;101803.59;5028609;28;20034;-46
2023/02/17 03:06:21;;;;;;;90.60;23.02;;;;;;;7.64;100.00;101803.31;5039273;28;20116;-43
2023/02/17 03:09:06;;;;;;;87.53;22.45;;;;;;;7.67;100.00;101803.03;5037916;28;20088;-45
2023/02/17 03:11:32;;;;;;;97.75;21.90;;;;;;;7.70;100.00;101808.09;5022920;28;20030;-45
2023/02/17 03:14:01;;;;;;;88.85;21.70;;;;;;;7.71;100.00;101803.59;5021401;28;20048;-46
2023/02/17 03:16:26;;;;;;;91.22;20.40;;;;;;;7.74;100.00;101807.81;5037840;28;20057;-46
2023/02/17 03:18:52;;;;;;;88.78;20.38;;;;;;;7.74;100.00;101797.97;5038989;28;20033;-45
2023/02/17 03:21:18;;;;;;;88.82;20.80;;;;;;;7.78;100.00;101817.28;5029003;28;20026;-45
2023/02/17 03:23:43;;;;;;;83.70;21.70;;;;;;;7.81;100.00;101795.56;5025649;28;20072;-45
2023/02/17 03:26:08;;;;;;;89.07;20.45;;;;;;;7.83;100.00;101796.28;5024740;28;20052;-44
2023/02/17 03:28:34;;;;;;;88.97;19.70;;;;;;;7.83;100.00;101794.44;5026526;28;20037;-43
2023/02/17 03:30:59;;;;;;;86.18;19.60;;;;;;;7.86;100.00;101804.03;5025461;28;20067;-45
2023/02/17 03:33:24;;;;;;;81.15;18.20;;;;;;;7.90;100.00;101810.81;5025775;28;20128;-46
2023/02/17 03:35:50;;;;;;;84.70;17.17;;;;;;;7.89;100.00;101811.78;5029201;28;20473;-44
2023/02/17 03:38:15;;;;;;;81.38;17.63;;;;;;;7.93;100.00;101818.56;5025727;28;20388;-44
2023/02/17 03:40:40;;;;;;;85.68;17.27;;;;;;;7.94;100.00;101819.41;5020284;28;20033;-43
2023/02/17 03:43:06;;;;;;;68.65;16.33;;;;;;;7.94;100.00;101822.09;5029213;28;20129;-44
2023/02/17 03:45:31;;;;;;;71.13;18.08;;;;;;;7.93;100.00;101823.09;5016531;28;20076;-44
2023/02/17 03:47:56;;;;;;;93.78;19.13;;;;;;;7.90;100.00;101819.69;5020267;28;20025;-43
2023/02/17 03:50:22;;;;;;;76.22;18.05;;;;;;;7.90;100.00;101813.50;5029216;28;20037;-42
2023/02/17 03:52:47;;;;;;;74.28;18.23;;;;;;;7.90;100.00;101818.88;5026687;28;20029;-45
2023/02/17 03:55:12;;;;;;;75.35;17.95;;;;;;;7.92;100.00;101811.50;5018680;28;20036;-43
2023/02/17 03:57:38;;;;;;;79.72;18.25;;;;;;;7.93;100.00;101809.69;5013804;28;20027;-43
2023/02/17 04:00:05;;;;;;;77.68;17.05;;;;;;;7.94;100.00;101804.19;5029354;28;20029;-45
2023/02/17 04:02:31;;;;;;;64.47;16.63;;;;;;;7.95;100.00;101803.19;5028772;28;20576;-44
2023/02/17 04:04:56;;;;;;;99.30;19.13;;;;;;;7.96;100.00;101798.69;5028891;28;20032;-44
2023/02/17 04:07:21;;;;;;;85.65;17.27;;;;;;;7.98;100.00;101804.72;5029754;28;20036;-45
2023/02/17 04:09:47;;;;;;;79.00;18.85;;;;;;;7.96;100.00;101807.56;5022145;28;20033;-45
2023/02/17 04:12:12;;;;;;;85.90;17.48;;;;;;;7.98;100.00;101810.97;5010079;28;20038;-47
2023/02/17 04:14:37;;;;;;;82.45;18.70;;;;;;;8.01;100.00;101815.19;5009250;28;20157;-45
2023/02/17 04:17:03;;;;;;;93.53;17.15;;;;;;;8.01;100.00;101805.31;5020488;28;20675;-46
2023/02/17 04:19:28;;;;;;;85.15;18.75;;;;;;;8.02;100.00;101807.00;5021689;28;20471;-45
2023/02/17 04:21:54;;;;;;;87.25;18.92;;;;;;;8.06;100.00;101804.91;5022368;28;20053;-45
2023/02/17 04:24:19;;;;;;;87.78;22.60;;;;;;;8.07;100.00;101802.06;5020259;28;20053;-46
2023/02/17 04:26:44;;;;;;;79.82;18.25;;;;;;;8.11;100.00;101813.34;5021823;28;20040;-45
2023/02/17 04:29:10;;;;;;;83.30;19.10;;;;;;;8.14;100.00;101800.50;5022687;28;20042;-45
2023/02/17 04:31:35;;;;;;;101.97;21.80;;;;;;;8.14;100.00;101792.47;5025439;28;20499;-45
2023/02/17 04:34:00;;;;;;;90.32;19.27;;;;;;;8.18;100.00;101782.28;5024551;28;20497;-45
2023/02/17 04:36:26;;;;;;;80.90;19.58;;;;;;;8.20;100.00;101787.50;5024739;28;20025;-46
2023/02/17 04:38:51;;;;;;;89.05;19.35;;;;;;;8.21;100.00;101775.78;5026040;28;20029;-46
2023/02/17 04:41:16;;;;;;;77.43;19.25;;;;;;;8.21;100.00;101789.19;5023644;28;20556;-45
2023/02/17 04:43:42;;;;;;;100.97;18.75;;;;;;;8.18;100.00;101773.41;5025723;28;20600;-43
2023/02/17 04:46:07;;;;;;;112.60;19.10;;;;;;;8.18;100.00;101778.75;5025963;28;20041;-43
2023/02/17 04:48:32;;;;;;;87.68;18.85;;;;;;;8.18;100.00;101794.84;5023654;28;20042;-45
2023/02/17 04:50:58;;;;;;;108.78;18.77;;;;;;;8.16;100.00;101799.50;5023083;28;20025;-43
2023/02/17 04:53:23;;;;;;;86.90;18.45;;;;;;;8.16;100.00;101802.19;5023695;28;20597;-44
2023/02/17 04:55:49;;;;;;;98.57;20.70;;;;;;;8.17;100.00;101804.72;5010750;28;20547;-45
2023/02/17 04:58:15;;;;;;;108.28;19.50;;;;;;;8.14;100.00;101788.94;5022798;28;20032;-46
2023/02/17 05:00:40;;;;;;;105.18;23.55;;;;;;;8.13;100.00;101789.91;5022611;28;20041;-47
2023/02/17 05:03:06;;;;;;;113.45;22.48;;;;;;;8.10;100.00;101796.41;5025400;28;20095;-48
2023/02/17 05:05:31;;;;;;;105.32;21.75;;;;;;;8.11;100.00;101800.78;5022820;28;20117;-45
2023/02/17 05:07:56;;;;;;;112.18;20.90;;;;;;;8.10;100.00;101801.75;5024005;28;20121;-46
2023/02/17 05:10:22;;;;;;;98.72;21.45;;;;;;;8.09;100.00;101789.34;5022105;28;20044;-46
2023/02/17 05:12:47;;;;;;;119.60;22.70;;;;;;;8.10;100.00;101804.44;5023597;28;20033;-45
2023/02/17 05:15:12;;;;;;;109.95;20.55;;;;;;;8.11;100.00;101799.94;5025923;28;20033;-45
2023/02/17 05:17:38;;;;;;;106.57;22.08;;;;;;;8.12;100.00;101788.22;5022572;28;20396;-45
2023/02/17 05:20:04;;;;;;;99.07;21.58;;;;;;;8.12;100.00;101786.38;5022967;28;20087;-45
2023/02/17 05:22:30;;;;;;;130.80;24.17;;;;;;;8.10;100.00;101783.00;5020982;28;20029;-45
2023/02/17 05:24:55;;;;;;;115.13;22.52;;;;;;;8.10;100.00;101772.28;5024223;28;20072;-46
2023/02/17 05:27:21;;;;;;;126.53;26.17;;;;;;;8.09;100.00;101765.22;5023143;28;20499;-45
2023/02/17 05:29:46;;;;;;;97.18;22.48;;;;;;;8.10;100.00;101764.22;5022304;28;20120;-45
2023/02/17 05:32:12;;;;;;;115.05;24.10;;;;;;;8.10;100.00;101750.81;5024711;28;20132;-43
2023/02/17 05:34:37;;;;;;;114.55;24.02;;;;;;;8.11;100.00;101749.84;5023593;28;20398;-44
2023/02/17 05:37:03;;;;;;;112.60;23.58;;;;;;;8.14;100.00;101754.91;5022521;28;20033;-44
2023/02/17 05:39:28;;;;;;;109.95;23.33;;;;;;;8.17;100.00;101750.25;5022453;28;20099;-44
2023/02/17 05:41:54;;;;;;;101.47;25.08;;;;;;;8.18;100.00;101747.41;5023274;28;20530;-45
2023/02/17 05:44:19;;;;;;;105.80;24.35;;;;;;;8.20;100.00;101744.59;5024019;28;20513;-46
2023/02/17 05:46:45;;;;;;;96.95;23.23;;;;;;;8.23;100.00;101742.47;5022685;28;20033;-45
2023/02/17 05:49:10;;;;;;;93.10;22.20;;;;;;;8.26;100.00;101744.88;5023152;28;20508;-45
2023/02/17 05:51:36;;;;;;;91.35;22.92;;;;;;;8.27;100.00;101757.31;5021112;28;20033;-45
2023/02/17 05:54:01;;;;;;;84.60;22.10;;;;;;;8.30;100.00;101745.44;5022516;28;20041;-46
2023/02/17 05:56:26;;;;;;;88.05;21.55;;;;;;;8.33;100.00;101739.78;5022766;28;20116;-45
2023/02/17 05:58:52;;;;;;;88.60;21.95;;;;;;;8.34;100.00;101742.28;5024496;28;20052;-45
2023/02/17 06:01:17;;;;;;;87.95;22.08;;;;;;;8.36;100.00;101734.97;5019839;28;20500;-46
2023/02/17 06:03:42;;;;;;;87.82;21.83;;;;;;;8.38;100.00;101737.50;5024928;28;20512;-44
2023/02/17 06:06:08;;;;;;;70.32;18.77;;;;;;;8.40;100.00;101743.63;5026788;28;20358;-46
2023/02/17 06:08:34;;;;;;;74.00;20.25;;;;;;;8.45;100.00;101737.78;5024965;28;20155;-46
2023/02/17 06:10:59;;;;;;;72.45;19.88;;;;;;;8.47;100.00;101744.69;5025174;28;20045;-45
2023/02/17 06:13:25;;;;;;;74.85;19.88;;;;;;;8.52;100.00;101752.31;5022436;28;20474;-45
2023/02/17 06:15:50;;;;;;;65.35;19.08;;;;;;;8.53;100.00;101754.88;5025392;28;20044;-45
2023/02/17 06:18:16;;;;;;;69.70;18.33;;;;;;;8.54;100.00;101756.53;5024755;28;20095;-46
2023/02/17 06:20:41;;;;;;;66.35;18.67;;;;;;;8.54;100.00;101761.91;5025188;28;20530;-44
2023/02/17 06:23:06;;;;;;;71.00;18.20;;;;;;;8.52;100.00;101758.53;5024953;28;20370;-44
2023/02/17 06:25:32;;;;;;;61.58;16.90;;;;;;;8.50;100.00;101731.00;5025709;28;20118;-46
2023/02/17 06:27:57;;;;;;;67.50;17.27;;;;;;;8.51;100.00;101726.50;5025332;28;20021;-45
2023/02/17 06:30:22;;;;;;;61.97;16.50;;;;;;;8.50;100.00;101725.63;5021804;28;20140;-45
2023/02/17 06:32:49;;;;;;;51.00;15.77;;;;;;;8.50;100.00;101716.72;5023943;28;20121;-43
2023/02/17 06:35:14;;;;;;;76.57;17.80;;;;;;;8.47;100.00;101720.56;5025404;28;20037;-45
2023/02/17 06:37:39;;;;;;;67.50;18.42;;;;;;;8.50;100.00;101714.06;5023914;28;20033;-45
2023/02/17 06:40:05;;;;;;;59.28;17.50;;;;;;;8.50;100.00;101736.34;5020901;28;20044;-48
2023/02/17 06:42:31;;;;;;;73.18;17.55;;;;;;;8.48;100.00;101706.16;5023798;28;20187;-45
2023/02/17 06:44:56;;;;;;;61.30;17.45;;;;;;;8.46;100.00;101710.00;5021230;28;20120;-46
2023/02/17 06:47:21;;;;;;;71.35;19.02;;;;;;;8.44;100.00;101707.44;5023267;28;20116;-47
2023/02/17 06:49:47;;;;;;;64.13;17.67;;;;;;;8.44;100.00;101726.22;5025573;28;20036;-47
2023/02/17 06:52:12;;;;;;;73.47;18.95;;;;;;;8.44;100.00;101739.63;5023693;28;20029;-45
2023/02/17 06:54:37;;;;;;;70.22;17.98;;;;;;;8.43;100.00;101735.28;5024312;28;20029;-45
2023/02/17 06:57:03;;;;;;;65.22;17.08;;;;;;;8.43;100.00;101734.44;5021099;28;20391;-44
2023/02/17 06:59:30;;;;;;;77.40;17.48;;;;;;;8.39;100.00;101733.84;5023631;28;20097;-44
2023/02/17 07:01:56;;;;;;;66.95;15.77;;;;;;;8.35;100.00;101722.56;5025019;28;20026;-44
2023/02/17 07:04:21;;;;;;;67.57;15.95;;;;;;;8.37;100.00;101735.78;5022995;28;20032;-46
2023/02/17 07:06:46;;;;;;;66.38;16.48;;;;;;;8.40;100.00;101757.03;5023305;28;20037;-46
2023/02/17 07:09:12;;;;;;;51.40;14.10;;;;;;;8.39;100.00;101739.22;5024048;28;20080;-46
2023/02/17 07:11:38;;;;;;;62.25;14.90;;;;;;;8.40;100.00;101750.78;5023164;28;20033;-44
2023/02/17 07:14:03;;;;;;;71.05;16.00;;;;;;;8.41;100.00;101761.38;5024091;28;20453;-44
2023/02/17 07:16:29;;;;;;;70.93;15.85;;;;;;;8.39;100.00;101759.81;5019050;28;20044;-47
2023/02/17 07:18:54;;;;;;;64.95;14.13;;;;;;;8.35;100.00;101756.56;5021755;28;20036;-46
2023/02/17 07:21:20;;;;;;;66.65;15.90;;;;;;;8.31;100.00;101749.81;5023212;28;20461;-46
2023/02/17 07:23:45;;;;;;;56.50;14.68;;;;;;;8.40;100.00;101759.72;5021315;28;20049;-44
2023/02/17 07:26:11;;;;;;;57.10;14.82;;;;;;;8.43;100.00;101756.72;5023202;28;20036;-44
2023/02/17 07:28:38;;;;;;;56.58;14.73;;;;;;;8.37;100.00;101754.56;5022631;28;20037;-43
2023/02/17 07:31:07;;;;;;;60.03;15.82;;;;;;;8.36;100.00;101724.22;5022763;28;20662;-43
2023/02/17 07:33:33;;;;;;;68.00;15.13;;;;;;;8.31;100.00;101731.88;5027292;28;20054;-44
2023/02/17 07:35:59;;;;;;;61.15;14.43;;;;;;;8.29;100.00;101733.00;5027730;28;20037;-44
2023/02/17 07:38:24;;;;;;;53.15;15.35;;;;;;;8.29;100.00;101736.56;5026131;28;20476;-46
2023/02/17 07:40:49;;;;;;;60.15;14.18;;;;;;;8.29;100.00;101733.88;5024838;28;20067;-47
2023/02/17 07:43:15;;;;;;;58.42;14.85;;;;;;;8.29;100.00;101739.22;5027976;28;20025;-45
2023/02/17 07:45:40;;;;;;;56.30;14.65;;;;;;;8.30;100.00;101740.06;5028212;28;20113;-46
2023/02/17 07:48:05;;;;;;;61.95;15.00;;;;;;;8.31;100.00;101753.31;5027923;28;20146;-46
2023/02/17 07:50:31;;;;;;;56.30;15.13;;;;;;;8.32;100.00;101759.53;5026372;28;20108;-45
2023/02/17 07:52:56;;;;;;;58.72;15.00;;;;;;;8.29;100.00;101759.81;5024520;28;20026;-45
2023/02/17 07:55:23;;;;;;;48.95;13.43;;;;;;;8.29;100.00;101773.22;5026029;28;20018;-45
2023/02/17 07:57:48;;;;;;;59.60;13.88;;;;;;;8.28;100.00;101784.97;5027607;28;20022;-46
2023/02/17 08:00:14;;;;;;;58.22;13.70;;;;;;;8.29;100.00;101792.00;5027878;28;20342;-44
2023/02/17 08:02:39;;;;;;;58.05;13.60;;;;;;;8.30;100.00;101794.56;5028000;28;20133;-45
2023/02/17 08:05:05;;;;;;;53.40;13.80;;;;;;;8.31;100.00;101808.81;5032794;28;20451;-45
2023/02/17 08:07:31;;;;;;;52.97;13.82;;;;;;;8.31;100.00;101800.75;5033009;28;20422;-45
2023/02/17 08:15:25;;;;;;;46.60;14.57;;;;;;;8.39;100.00;101755.31;5029480;28;20535;-45
2023/02/17 08:17:52;;;;;;;60.60;14.40;;;;;;;8.40;100.00;101765.06;5033286;28;20029;-44
2023/02/17 08:20:17;;;;;;;49.00;13.35;;;;;;;8.48;100.00;101773.25;5031112;28;20096;-46
2023/02/17 08:22:43;;;;;;;52.70;14.80;;;;;;;8.55;100.00;101760.91;5033862;28;20472;-45
2023/02/17 08:25:09;;;;;;;51.85;12.75;;;;;;;8.59;100.00;101776.75;5033300;28;20392;-44
2023/02/17 08:27:35;;;;;;;61.38;13.32;;;;;;;8.57;100.00;101775.03;5033467;28;20046;-46
2023/02/17 08:30:00;;;;;;;49.05;12.90;;;;;;;8.61;100.00;101780.09;5031021;28;20075;-47
2023/02/17 08:32:26;;;;;;;49.33;10.90;;;;;;;8.54;100.00;101775.31;5033562;28;20037;-44
2023/02/17 08:34:54;;;;;;;42.55;11.68;;;;;;;8.55;100.00;101763.59;5032866;28;20080;-45
2023/02/17 08:37:20;;;;;;;41.00;11.90;;;;;;;8.56;100.00;101794.81;5030271;28;20679;-45
2023/02/17 08:39:45;;;;;;;37.00;9.95;;;;;;;8.58;100.00;101775.88;5033508;28;20108;-45
2023/02/17 08:42:10;;;;;;;40.22;10.80;;;;;;;8.56;100.00;101794.81;5033142;28;20140;-46
2023/02/17 08:44:36;;;;;;;45.33;11.48;;;;;;;8.56;100.00;101792.13;5032224;28;20199;-44
2023/02/17 08:47:03;;;;;;;59.45;12.70;;;;;;;8.54;100.00;101785.22;5031592;28;20052;-44
2023/02/17 08:49:31;;;;;;;51.45;12.05;;;;;;;8.61;100.00;101783.66;5033929;28;20029;-45
2023/02/17 08:51:56;;;;;;;39.03;9.88;;;;;;;8.61;100.00;101785.47;5033952;28;20025;-44
2023/02/17 08:54:22;;;;;;;49.03;10.13;;;;;;;8.57;100.00;101780.41;5033887;28;20033;-45
2023/02/17 08:56:47;;;;;;;43.20;11.68;;;;;;;8.49;100.00;101777.59;5032501;28;20451;-45
2023/02/17 08:59:12;;;;;;;47.65;12.18;;;;;;;8.50;100.00;101779.28;5031796;28;20120;-46
2023/02/17 09:01:38;;;;;;;52.13;12.25;;;;;;;8.52;100.00;101793.41;5031448;28;20056;-44
2023/02/17 09:04:05;;;;;;;34.97;9.90;;;;;;;8.54;100.00;101775.31;5031446;28;20066;-48
2023/02/17 09:06:35;;;;;;;48.85;10.40;;;;;;;8.60;100.00;101789.16;5032621;28;20116;-45
2023/02/17 09:09:00;;;;;;;31.52;9.48;;;;;;;8.60;100.00;101794.53;5028125;28;20025;-44
2023/02/17 09:11:26;;;;;;;47.33;10.50;;;;;;;8.65;100.00;101808.34;5029927;28;20766;-45
2023/02/17 09:13:51;;;;;;;40.20;9.45;;;;;;;8.75;100.00;101804.63;5030893;28;20048;-44
2023/02/17 09:16:19;;;;;;;42.47;10.07;;;;;;;8.85;100.00;101804.63;5027126;28;20030;-45
2023/02/17 09:18:44;;;;;;;41.55;10.00;;;;;;;8.94;100.00;101801.03;5025211;28;20030;-45
2023/02/17 09:21:11;;;;;;;47.33;10.30;;;;;;;8.98;100.00;101794.38;5026781;28;20500;-43
2023/02/17 09:23:37;;;;;;;42.30;10.63;;;;;;;9.02;100.00;101776.97;5027348;28;20109;-47
2023/02/17 09:26:05;;;;;;;35.22;10.00;;;;;;;8.94;100.00;101771.50;5018715;28;20369;-41
2023/02/17 09:28:30;;;;;;;41.00;10.13;;;;;;;8.97;100.00;101755.09;5021672;28;20064;-44
2023/02/17 09:30:56;;;;;;;36.47;11.05;;;;;;;8.89;100.00;101763.03;5022941;28;20112;-45
2023/02/17 09:33:21;;;;;;;44.92;11.07;;;;;;;8.86;100.00;101770.56;5021520;28;20087;-45
2023/02/17 09:35:48;;;;;;;43.00;11.18;;;;;;;8.90;100.00;101780.84;5023241;28;20454;-45
2023/02/17 09:38:13;;;;;;;41.90;12.35;;;;;;;8.86;100.00;101800.94;5027227;28;20037;-45
2023/02/17 09:40:47;;;;;;;45.47;12.45;;;;;;;8.86;100.00;101800.94;5022322;28;20071;-44
2023/02/17 09:43:15;;;;;;;41.40;11.07;;;;;;;8.84;100.00;101805.59;5022654;28;20037;-42
2023/02/17 09:45:41;;;;;;;63.63;13.27;;;;;;;8.89;100.00;101808.69;5013441;28;20029;-44
2023/02/17 09:48:10;;;;;;;35.85;11.52;;;;;;;8.84;100.00;101813.63;5021431;28;20041;-44
2023/02/17 09:50:44;;;;;;;42.10;11.18;;;;;;;8.89;100.00;101835.53;5031212;28;20413;-44
2023/02/17 09:53:23;;;;;;;52.55;11.93;;;;;;;8.90;100.00;101833.69;5024988;28;20029;-44
2023/02/17 09:55:51;;;;;;;45.67;11.52;;;;;;;8.88;100.00;101816.91;5032359;28;20025;-44
2023/02/17 09:58:16;;;;;;;;;;;;;;;8.86;100.00;101816.19;5014928;28;20048;-44
2023/02/17 10:00:45;;;;;;;55.33;13.37;;;;;;;8.83;100.00;101817.31;5023914;28;20556;-43
2023/02/17 10:03:13;;;;;;;42.83;10.93;;;;;;;8.89;100.00;101838.22;5022934;28;20466;-44
2023/02/17 10:05:39;;;;;;;;;;;;;;;8.91;100.00;101846.97;5025379;28;20424;-44
2023/02/17 10:08:10;;;;;;;41.97;10.65;;;;;;;8.95;100.00;101829.59;5029374;28;19928;-44
2023/02/17 10:10:42;;;;;;;38.40;10.35;;;;;;;9.01;100.00;101829.00;5023729;28;20033;-42
2023/02/17 10:13:08;;;;;;;35.30;9.88;;;;;;;9.04;100.00;101832.38;5030385;28;20021;-43
2023/02/17 10:15:43;;;;;;;39.78;9.90;;;;;;;9.11;100.00;101825.41;5017042;28;20033;-45
2023/02/17 10:18:36;;;;;;;29.10;9.82;;;;;;;9.08;100.00;101833.75;5016142;28;20477;-46
2023/02/17 10:21:23;;;;;;;46.78;10.05;;;;;;;9.08;100.00;101831.91;5025041;28;20107;-46
2023/02/17 10:23:50;;;;;;;45.17;10.45;;;;;;;9.11;100.00;101839.69;5030556;28;20048;-44
2023/02/17 10:26:22;;;;;;;48.42;9.52;;;;;;;9.15;100.00;101842.94;5029655;28;20390;-47
2023/02/17 10:28:49;;;;;;;38.13;9.32;;;;;;;9.21;100.00;101842.31;5025819;28;20034;-45
2023/02/17 10:31:31;;;;;;;40.53;8.88;;;;;;;9.22;100.00;101835.97;5016990;28;20085;-45
2023/02/17 10:34:02;;;;;;;50.53;9.02;;;;;;;9.20;100.00;101856.75;5010178;28;20049;-44
2023/02/17 10:36:59;;;;;;;38.17;8.65;;;;;;;9.22;100.00;101818.00;5010736;28;20501;-44
2023/02/17 10:39:30;;;;;;;38.30;8.65;;;;;;;9.27;100.00;101839.06;5018729;28;20483;-44
2023/02/17 10:41:56;;;;;;;46.75;8.30;;;;;;;9.37;100.00;101847.06;5025400;28;20069;-45
2023/02/17 10:44:23;;;;;;;38.60;7.88;;;;;;;9.34;100.00;101863.47;5011764;28;20604;-46
2023/02/17 10:46:49;;;;;;;34.58;7.90;;;;;;;9.29;100.00;101866.59;5013756;28;20313;-42
2023/02/17 10:49:21;;;;;;;42.53;8.75;;;;;;;9.25;100.00;101872.44;5023561;28;20033;-45
2023/02/17 10:51:47;;;;;;;32.25;8.27;;;;;;;9.26;100.00;101866.06;5013112;28;20100;-44
2023/02/17 10:54:41;;;;;;;41.20;9.15;;;;;;;9.21;100.00;101879.94;5020453;28;20108;-46
2023/02/17 10:57:11;;;;;;;36.80;8.38;;;;;;;9.26;100.00;101876.81;5029922;28;20737;-43
2023/02/17 10:59:42;;;;;;;39.60;8.90;;;;;;;9.21;100.00;101875.41;5020373;28;20139;-44
2023/02/17 11:02:36;;;;;;;40.03;9.40;;;;;;;9.17;100.00;101840.94;5032289;28;20013;-44
2023/02/17 11:05:02;;;;;;;42.42;9.02;;;;;;;9.09;100.00;101854.28;5017908;28;20198;-45
2023/02/17 11:07:40;;;;;;;45.25;9.80;;;;;;;9.16;100.00;101839.22;5027991;28;20186;-43
2023/02/17 11:10:20;;;;;;;;;;;;;;;9.15;100.00;101826.81;5025060;28;20464;-44
2023/02/17 11:12:46;;;;;;;44.97;9.07;;;;;;;9.21;100.00;101842.31;5017599;28;19913;-45
2023/02/17 11:15:28;;;;;;;44.00;9.52;;;;;;;9.27;100.00;101870.44;5031668;28;20488;-44
2023/02/17 11:17:54;;;;;;;46.20;9.80;;;;;;;9.33;100.00;101851.88;5014401;28;20080;-44